sensor_id;sensor_type;location;lat;lon;timestamp;pressure;altitude;pressure_sealevel;temperature;humidity
3590;BME280;1809;48.470;9.226;2023-04-21T00:01:45;122165.81;;;5.99;100.00
3590;BME280;1809;48.470;9.226;2023-04-21T00:04:11;123190.59;;;5.98;100.00
3590;BME280;1809;48.470;9.226;2023-04-21T00:06:37;123520.63;;;5.92;100.00
3590;BME280;1809;48.470;9.226;2023-04-21T00:09:06;124559.13;;;5.98;100.00
3590;BME280;1809;48.470;9.226;2023-04-21T00:11:31;124892.28;;;5.93;100.00
3590;BME280;1809;48.470;9.226;2023-04-21T00:13:56;125217.06;;;5.84;100.00
3590;BME280;1809;48.470;9.226;2023-04-21T00:16:22;126238.25;;;5.81;100.00
3590;BME280;1809;48.470;9.226;2023-04-21T00:18:47;127594.88;;;5.75;100.00
3590;BME280;1809;48.470;9.226;2023-04-21T00:21:12;128955.97;;;5.70;100.00
3590;BME280;1809;48.470;9.226;2023-04-21T00:23:38;130332.56;;;5.73;100.00
3590;BME280;1809;48.470;9.226;2023-04-21T00:26:03;129989.72;;;5.73;100.00
3590;BME280;1809;48.470;9.226;2023-04-21T00:28:29;130333.63;;;5.73;100.00
3590;BME280;1809;48.470;9.226;2023-04-21T00:30:54;130698.22;;;5.83;100.00
3590;BME280;1809;48.470;9.226;2023-04-21T00:33:20;129985.38;;;5.71;100.00
3590;BME280;1809;48.470;9.226;2023-04-21T00:35:45;130349.88;;;5.81;100.00
3590;BME280;1809;48.470;9.226;2023-04-21T00:38:11;129642.56;;;5.71;100.00
3590;BME280;1809;48.470;9.226;2023-04-21T00:40:36;129267.63;;;5.56;100.00
3590;BME280;1809;48.470;9.226;2023-04-21T00:43:05;130276.31;;;5.47;100.00
3590;BME280;1809;48.470;9.226;2023-04-21T00:45:30;131302.44;;;5.46;100.00
3590;BME280;1809;48.470;9.226;2023-04-21T00:47:55;131961.84;;;5.33;100.00
3590;BME280;1809;48.470;9.226;2023-04-21T00:50:21;132957.31;;;5.18;100.00
3590;BME280;1809;48.470;9.226;2023-04-21T00:52:47;134666.25;;;5.16;100.00
3590;BME280;1809;48.470;9.226;2023-04-21T00:55:13;136019.22;;;5.07;100.00
3590;BME280;1809;48.470;9.226;2023-04-21T00:57:38;136680.38;;;4.96;100.00
3590;BME280;1809;48.470;9.226;2023-04-21T01:00:04;137339.16;;;4.84;100.00
3590;BME280;1809;48.470;9.226;2023-04-21T01:02:30;137651.28;;;4.70;100.00
3590;BME280;1809;48.470;9.226;2023-04-21T01:04:56;137621.56;;;4.57;100.00
3590;BME280;1809;48.470;9.226;2023-04-21T01:07:24;138650.53;;;4.57;100.00
3590;BME280;1809;48.470;9.226;2023-04-21T01:09:49;139306.50;;;4.44;100.00
3590;BME280;1809;48.470;9.226;2023-04-21T01:12:14;140321.72;;;4.38;100.00
3590;BME280;1809;48.470;9.226;2023-04-21T01:14:40;140990.31;;;4.30;100.00
3590;BME280;1809;48.470;9.226;2023-04-21T01:17:06;141671.91;;;4.28;100.00
3590;BME280;1809;48.470;9.226;2023-04-21T01:19:38;142329.84;;;4.16;100.00
3590;BME280;1809;48.470;9.226;2023-04-21T01:22:11;142654.00;;;4.08;100.00
3590;BME280;1809;48.470;9.226;2023-04-21T01:24:44;143007.91;;;4.13;100.00
3590;BME280;1809;48.470;9.226;2023-04-21T01:27:14;144052.06;;;4.19;100.00
3590;BME280;1809;48.470;9.226;2023-04-21T01:29:41;144380.97;;;4.13;100.00
3590;BME280;1809;48.470;9.226;2023-04-21T01:32:09;144338.91;;;3.95;100.00
3590;BME280;1809;48.470;9.226;2023-04-21T01:34:36;144702.63;;;4.04;100.00
3590;BME280;1809;48.470;9.226;2023-04-21T01:37:02;144667.69;;;3.89;100.00
3590;BME280;1809;48.470;9.226;2023-04-21T01:39:28;145018.19;;;3.92;100.00
3590;BME280;1809;48.470;9.226;2023-04-21T01:41:55;145349.34;;;3.87;100.00
3590;BME280;1809;48.470;9.226;2023-04-21T01:44:22;146040.88;;;3.89;100.00
3590;BME280;1809;48.470;9.226;2023-04-21T01:46:47;146031.13;;;3.85;100.00
3590;BME280;1809;48.470;9.226;2023-04-21T01:49:12;146009.22;;;3.76;100.00
3590;BME280;1809;48.470;9.226;2023-04-21T01:51:38;146362.25;;;3.80;100.00
3590;BME280;1809;48.470;9.226;2023-04-21T01:54:03;146710.53;;;3.82;100.00
3590;BME280;1809;48.470;9.226;2023-04-21T01:56:28;146693.41;;;3.75;100.00
3590;BME280;1809;48.470;9.226;2023-04-21T01:58:54;146318.34;;;3.62;100.00
3590;BME280;1809;48.470;9.226;2023-04-21T02:01:19;145948.38;;;3.51;100.00
3590;BME280;1809;48.470;9.226;2023-04-21T02:03:44;146286.63;;;3.49;100.00
3590;BME280;1809;48.470;9.226;2023-04-21T02:06:10;146276.88;;;3.45;100.00
3590;BME280;1809;48.470;9.226;2023-04-21T02:08:35;145920.38;;;3.39;100.00
3590;BME280;1809;48.470;9.226;2023-04-21T02:11:00;145899.66;;;3.31;100.00
3590;BME280;1809;48.470;9.226;2023-04-21T02:13:26;145899.66;;;3.31;100.00
3590;BME280;1809;48.470;9.226;2023-04-21T02:15:51;146225.66;;;3.23;100.00
3590;BME280;1809;48.470;9.226;2023-04-21T02:18:16;145869.25;;;3.18;100.00
3590;BME280;1809;48.470;9.226;2023-04-21T02:20:42;145854.66;;;3.12;100.00
3590;BME280;1809;48.470;9.226;2023-04-21T02:23:07;145868.06;;;3.17;100.00
3590;BME280;1809;48.470;9.226;2023-04-21T02:25:35;145832.75;;;3.03;100.00
3590;BME280;1809;48.470;9.226;2023-04-21T02:28:01;145833.97;;;3.03;100.00
3590;BME280;1809;48.470;9.226;2023-04-21T02:30:26;146196.34;;;3.11;100.00
3590;BME280;1809;48.470;9.226;2023-04-21T02:32:52;146206.13;;;3.15;100.00
3590;BME280;1809;48.470;9.226;2023-04-21T02:35:17;146185.41;;;3.07;100.00
3590;BME280;1809;48.470;9.226;2023-04-21T02:37:42;146176.88;;;3.03;100.00
3590;BME280;1809;48.470;9.226;2023-04-21T02:40:08;145816.94;;;2.96;100.00
3590;BME280;1809;48.470;9.226;2023-04-21T02:42:34;145802.34;;;2.90;100.00
3590;BME280;1809;48.470;9.226;2023-04-21T02:44:59;145801.13;;;2.90;100.00
3590;BME280;1809;48.470;9.226;2023-04-21T02:47:25;145802.34;;;2.90;100.00
3590;BME280;1809;48.470;9.226;2023-04-21T02:49:50;145814.53;;;2.95;100.00
3590;BME280;1809;48.470;9.226;2023-04-21T02:52:15;146169.53;;;3.00;100.00
3590;BME280;1809;48.470;9.226;2023-04-21T02:54:41;146162.22;;;2.97;100.00
3590;BME280;1809;48.470;9.226;2023-04-21T02:57:06;146169.53;;;3.00;100.00
3590;BME280;1809;48.470;9.226;2023-04-21T02:59:31;146165.91;;;2.99;100.00
3590;BME280;1809;48.470;9.226;2023-04-21T03:01:57;146169.53;;;3.00;100.00
3590;BME280;1809;48.470;9.226;2023-04-21T03:04:22;146167.09;;;2.99;100.00
3590;BME280;1809;48.470;9.226;2023-04-21T03:06:50;145807.25;;;2.92;100.00
3590;BME280;1809;48.470;9.226;2023-04-21T03:09:15;146156.16;;;2.95;100.00
3590;BME280;1809;48.470;9.226;2023-04-21T03:11:40;145802.34;;;2.90;100.00
3590;BME280;1809;48.470;9.226;2023-04-21T03:14:06;146154.91;;;2.94;100.00
3590;BME280;1809;48.470;9.226;2023-04-21T03:16:31;146175.63;;;3.03;100.00
3590;BME280;1809;48.470;9.226;2023-04-21T03:18:56;146175.63;;;3.03;100.00
3590;BME280;1809;48.470;9.226;2023-04-21T03:21:21;146531.97;;;3.08;100.00
3590;BME280;1809;48.470;9.226;2023-04-21T03:23:47;146517.31;;;3.02;100.00
3590;BME280;1809;48.470;9.226;2023-04-21T03:26:12;146518.56;;;3.03;100.00
3590;BME280;1809;48.470;9.226;2023-04-21T03:28:37;146540.56;;;3.12;100.00
3590;BME280;1809;48.470;9.226;2023-04-21T03:31:03;146899.47;;;3.18;100.00
3590;BME280;1809;48.470;9.226;2023-04-21T03:33:28;146899.47;;;3.18;100.00
3590;BME280;1809;48.470;9.226;2023-04-21T03:35:53;146899.47;;;3.18;100.00
3590;BME280;1809;48.470;9.226;2023-04-21T03:38:18;146897.06;;;3.17;100.00
3590;BME280;1809;48.470;9.226;2023-04-21T03:40:44;146904.41;;;3.20;100.00
3590;BME280;1809;48.470;9.226;2023-04-21T03:43:09;147254.88;;;3.23;100.00
3590;BME280;1809;48.470;9.226;2023-04-21T03:45:35;147264.66;;;3.28;100.00
3590;BME280;1809;48.470;9.226;2023-04-21T03:48:00;147264.66;;;3.28;100.00
3590;BME280;1809;48.470;9.226;2023-04-21T03:50:25;147262.22;;;3.27;100.00
3590;BME280;1809;48.470;9.226;2023-04-21T03:52:51;147254.88;;;3.23;100.00
3590;BME280;1809;48.470;9.226;2023-04-21T03:55:16;147285.59;;;3.36;100.00
3590;BME280;1809;48.470;9.226;2023-04-21T03:57:41;147276.97;;;3.33;100.00
3590;BME280;1809;48.470;9.226;2023-04-21T04:00:08;147269.59;;;3.30;100.00
3590;BME280;1809;48.470;9.226;2023-04-21T04:02:35;146914.19;;;3.24;100.00
3590;BME280;1809;48.470;9.226;2023-04-21T04:05:01;146914.19;;;3.24;100.00
3590;BME280;1809;48.470;9.226;2023-04-21T04:07:27;146562.56;;;3.21;100.00
3590;BME280;1809;48.470;9.226;2023-04-21T04:09:52;146565.00;;;3.22;100.00
3590;BME280;1809;48.470;9.226;2023-04-21T04:12:18;146563.78;;;3.21;100.00
3590;BME280;1809;48.470;9.226;2023-04-21T04:14:43;146212.22;;;3.18;100.00
3590;BME280;1809;48.470;9.226;2023-04-21T04:17:08;146214.66;;;3.19;100.00
3590;BME280;1809;48.470;9.226;2023-04-21T04:19:34;146237.84;;;3.29;100.00
3590;BME280;1809;48.470;9.226;2023-04-21T04:21:59;146588.25;;;3.32;100.00
3590;BME280;1809;48.470;9.226;2023-04-21T04:24:25;146241.47;;;3.30;100.00
3590;BME280;1809;48.470;9.226;2023-04-21T04:26:51;146599.28;;;3.36;100.00
3590;BME280;1809;48.470;9.226;2023-04-21T04:29:17;146612.72;;;3.42;100.00
3590;BME280;1809;48.470;9.226;2023-04-21T04:31:43;146602.91;;;3.38;100.00
3590;BME280;1809;48.470;9.226;2023-04-21T04:34:08;146632.25;;;3.50;100.00
3590;BME280;1809;48.470;9.226;2023-04-21T04:36:35;147003.66;;;3.61;100.00
3590;BME280;1809;48.470;9.226;2023-04-21T04:39:00;146995.13;;;3.58;100.00
3590;BME280;1809;48.470;9.226;2023-04-21T04:41:28;146642.06;;;3.54;100.00
3590;BME280;1809;48.470;9.226;2023-04-21T04:43:54;146649.38;;;3.57;100.00
3590;BME280;1809;48.470;9.226;2023-04-21T04:46:21;146673.84;;;3.67;100.00
3590;BME280;1809;48.470;9.226;2023-04-21T04:48:48;146320.78;;;3.63;100.00
3590;BME280;1809;48.470;9.226;2023-04-21T04:51:14;146334.22;;;3.68;100.00
3590;BME280;1809;48.470;9.226;2023-04-21T04:53:40;146354.94;;;3.77;100.00
3590;BME280;1809;48.470;9.226;2023-04-21T04:56:06;146744.78;;;3.96;100.00
3590;BME280;1809;48.470;9.226;2023-04-21T04:58:31;146409.88;;;4.00;100.00
3590;BME280;1809;48.470;9.226;2023-04-21T05:00:56;145731.53;;;4.03;100.00
3590;BME280;1809;48.470;9.226;2023-04-21T05:03:22;145020.56;;;3.93;100.00
3590;BME280;1809;48.470;9.226;2023-04-21T05:05:47;144326.84;;;3.90;100.00
3590;BME280;1809;48.470;9.226;2023-04-21T05:08:12;143266.34;;;3.77;100.00
3590;BME280;1809;48.470;9.226;2023-04-21T05:10:38;142937.59;;;3.83;100.00
3590;BME280;1809;48.470;9.226;2023-04-21T05:13:03;142243.34;;;3.79;100.00
3590;BME280;1809;48.470;9.226;2023-04-21T05:15:28;141182.88;;;3.66;100.00
3590;BME280;1809;48.470;9.226;2023-04-21T05:17:54;141194.63;;;3.71;100.00
3590;BME280;1809;48.470;9.226;2023-04-21T05:20:20;141205.25;;;3.75;100.00
3590;BME280;1809;48.470;9.226;2023-04-21T05:22:45;141221.72;;;3.83;100.00
3590;BME280;1809;48.470;9.226;2023-04-21T05:25:10;141229.91;;;3.86;100.00
3590;BME280;1809;48.470;9.226;2023-04-21T05:27:40;141239.34;;;3.90;100.00
3590;BME280;1809;48.470;9.226;2023-04-21T05:30:06;141267.56;;;4.02;100.00
3590;BME280;1809;48.470;9.226;2023-04-21T05:32:32;140922.28;;;4.01;100.00
3590;BME280;1809;48.470;9.226;2023-04-21T05:34:57;139844.66;;;3.80;100.00
3590;BME280;1809;48.470;9.226;2023-04-21T05:37:24;139856.34;;;3.85;100.00
3590;BME280;1809;48.470;9.226;2023-04-21T05:39:50;140228.28;;;3.98;100.00
3590;BME280;1809;48.470;9.226;2023-04-21T05:42:15;140589.88;;;4.06;100.00
3590;BME280;1809;48.470;9.226;2023-04-21T05:44:42;140969.19;;;4.21;100.00
3590;BME280;1809;48.470;9.226;2023-04-21T05:47:08;141351.13;;;4.38;100.00
3590;BME280;1809;48.470;9.226;2023-04-21T05:49:33;141023.22;;;4.45;100.00
3590;BME280;1809;48.470;9.226;2023-04-21T05:51:58;140334.53;;;4.44;100.00
3590;BME280;1809;48.470;9.226;2023-04-21T05:54:24;140396.44;;;4.70;100.00
3590;BME280;1809;48.470;9.226;2023-04-21T05:56:49;138642.44;;;4.54;100.00
3590;BME280;1809;48.470;9.226;2023-04-21T05:59:15;138329.38;;;4.67;100.00
3590;BME280;1809;48.470;9.226;2023-04-21T06:01:41;138368.47;;;4.84;100.00
3590;BME280;1809;48.470;9.226;2023-04-21T06:04:06;138050.56;;;4.95;100.00
3590;BME280;1809;48.470;9.226;2023-04-21T06:06:31;136654.25;;;4.84;100.00
3590;BME280;1809;48.470;9.226;2023-04-21T06:08:56;135996.59;;;4.97;100.00
3590;BME280;1809;48.470;9.226;2023-04-21T06:11:22;134263.06;;;4.88;100.00
3590;BME280;1809;48.470;9.226;2023-04-21T06:13:48;132546.22;;;4.87;100.00
3590;BME280;1809;48.470;9.226;2023-04-21T06:16:14;130454.34;;;4.70;100.00
3590;BME280;1809;48.470;9.226;2023-04-21T06:18:39;128711.09;;;4.55;100.00
3590;BME280;1809;48.470;9.226;2023-04-21T06:21:04;128369.03;;;4.55;100.00
3590;BME280;1809;48.470;9.226;2023-04-21T06:23:30;128377.59;;;4.59;100.00
3590;BME280;1809;48.470;9.226;2023-04-21T06:26:05;128035.53;;;4.59;100.00
3590;BME280;1809;48.470;9.226;2023-04-21T06:28:32;127688.25;;;4.56;100.00
3590;BME280;1809;48.470;9.226;2023-04-21T06:30:59;126958.00;;;4.34;100.00
3590;BME280;1809;48.470;9.226;2023-04-21T06:33:25;128330.69;;;4.37;100.00
3590;BME280;1809;48.470;9.226;2023-04-21T06:35:51;129366.28;;;4.41;100.00
3590;BME280;1809;48.470;9.226;2023-04-21T06:38:16;130397.97;;;4.44;100.00
3590;BME280;1809;48.470;9.226;2023-04-21T06:40:42;131453.00;;;4.57;100.00
3590;BME280;1809;48.470;9.226;2023-04-21T06:43:07;131780.03;;;4.50;100.00
3590;BME280;1809;48.470;9.226;2023-04-21T06:45:32;132474.66;;;4.54;100.00
3590;BME280;1809;48.470;9.226;2023-04-21T06:47:58;132850.22;;;4.69;100.00
3590;BME280;1809;48.470;9.226;2023-04-21T06:50:23;132519.81;;;4.75;100.00
3590;BME280;1809;48.470;9.226;2023-04-21T06:52:48;131808.50;;;4.63;100.00
3590;BME280;1809;48.470;9.226;2023-04-21T06:55:14;132544.00;;;4.86;100.00
3590;BME280;1809;48.470;9.226;2023-04-21T06:57:39;132926.41;;;5.04;100.00
3590;BME280;1809;48.470;9.226;2023-04-21T07:00:05;132592.47;;;5.08;100.00
3590;BME280;1809;48.470;9.226;2023-04-21T07:02:30;132305.78;;;5.34;100.00
3590;BME280;1809;48.470;9.226;2023-04-21T07:04:56;130957.50;;;5.45;100.00
3590;BME280;1809;48.470;9.226;2023-04-21T07:07:21;128935.63;;;5.61;100.00
3590;BME280;1809;48.470;9.226;2023-04-21T07:09:46;125154.81;;;5.54;100.00
3590;BME280;1809;48.470;9.226;2023-04-21T07:12:13;123133.38;;;5.70;100.00
3590;BME280;1809;48.470;9.226;2023-04-21T07:14:38;121482.44;;;6.00;100.00
3590;BME280;1809;48.470;9.226;2023-04-21T07:17:03;115308.81;;;5.89;100.00
3590;BME280;1809;48.470;9.226;2023-04-21T07:19:29;112610.44;;;6.07;100.00
3590;BME280;1809;48.470;9.226;2023-04-21T07:21:54;109835.34;;;5.81;100.00
3590;BME280;1809;48.470;9.226;2023-04-21T07:24:20;107769.88;;;5.70;100.00
3590;BME280;1809;48.470;9.226;2023-04-21T07:26:45;107103.66;;;5.78;100.00
3590;BME280;1809;48.470;9.226;2023-04-21T07:29:10;106834.50;;;6.19;100.00
3590;BME280;1809;48.470;9.226;2023-04-21T07:31:36;104150.88;;;6.44;100.00
3590;BME280;1809;48.470;9.226;2023-04-21T07:34:01;100148.75;;;6.95;100.00
3590;BME280;1809;48.470;9.226;2023-04-21T07:36:26;88933.91;;;7.00;100.00
3590;BME280;1809;48.470;9.226;2023-04-21T07:38:52;80853.44;;;7.45;100.00
3590;BME280;1809;48.470;9.226;2023-04-21T07:41:18;68319.53;;;7.33;100.00
3590;BME280;1809;48.470;9.226;2023-04-21T07:43:43;57213.03;;;7.53;100.00
3590;BME280;1809;48.470;9.226;2023-04-21T07:46:09;46451.91;;;7.48;100.00
3590;BME280;1809;48.470;9.226;2023-04-21T07:48:34;39748.09;;;7.51;100.00
3590;BME280;1809;48.470;9.226;2023-04-21T07:51:00;36084.50;;;7.84;100.00
3590;BME280;1809;48.470;9.226;2023-04-21T07:53:27;26399.00;;;8.04;100.00
3590;BME280;1809;48.470;9.226;2023-04-21T07:55:52;2776.03;;;8.06;100.00
3590;BME280;1809;48.470;9.226;2023-04-21T07:58:19;-7388.47;;;8.13;100.00
3590;BME280;1809;48.470;9.226;2023-04-21T08:00:44;1118.72;;;7.98;100.00
3590;BME280;1809;48.470;9.226;2023-04-21T08:03:10;8422.13;;;8.47;100.00
3590;BME280;1809;48.470;9.226;2023-04-21T08:05:35;1119.09;;;8.75;100.00
3590;BME280;1809;48.470;9.226;2023-04-21T08:08:01;-16421.25;;;9.05;100.00
3590;BME280;1809;48.470;9.226;2023-04-21T08:10:26;-16435.03;;;9.54;100.00
3590;BME280;1809;48.470;9.226;2023-04-21T08:12:52;-16427.44;;;9.27;100.00
3590;BME280;1809;48.470;9.226;2023-04-21T08:15:17;-16418.44;;;8.95;100.00
3590;BME280;1809;48.470;9.226;2023-04-21T08:17:43;-16422.78;;;9.10;100.00
3590;BME280;1809;48.470;9.226;2023-04-21T08:20:08;-16431.38;;;9.41;100.00
3590;BME280;1809;48.470;9.226;2023-04-21T08:22:34;-16419.56;;;8.99;100.00
3590;BME280;1809;48.470;9.226;2023-04-21T08:25:01;-16412.53;;;8.74;100.00
3590;BME280;1809;48.470;9.226;2023-04-21T08:27:27;-7504.75;;;8.72;100.00
3590;BME280;1809;48.470;9.226;2023-04-21T08:29:52;787.34;;;9.06;100.00
3590;BME280;1809;48.470;9.226;2023-04-21T08:32:18;-11837.97;;;9.16;100.00
3590;BME280;1809;48.470;9.226;2023-04-21T08:34:48;-11193.09;;;9.22;100.00
3590;BME280;1809;48.470;9.226;2023-04-21T08:37:14;-6421.84;;;9.62;100.00
3590;BME280;1809;48.470;9.226;2023-04-21T08:39:39;-16439.78;;;9.71;100.00
3590;BME280;1809;48.470;9.226;2023-04-21T08:42:06;-16444.28;;;9.88;100.00
3590;BME280;1809;48.470;9.226;2023-04-21T08:44:32;-16446.41;;;9.95;100.00
3590;BME280;1809;48.470;9.226;2023-04-21T08:46:58;-16439.38;;;9.70;100.00
3590;BME280;1809;48.470;9.226;2023-04-21T08:49:28;-16447.38;;;9.99;100.00
3590;BME280;1809;48.470;9.226;2023-04-21T08:51:53;-16442.75;;;9.82;100.00
3590;BME280;1809;48.470;9.226;2023-04-21T08:54:19;-6850.63;;;10.17;100.00
3590;BME280;1809;48.470;9.226;2023-04-21T08:56:47;-14990.50;;;10.17;100.00
3590;BME280;1809;48.470;9.226;2023-04-21T08:59:13;-10085.22;;;10.29;100.00
3590;BME280;1809;48.470;9.226;2023-04-21T09:04:32;-8528.81;;;10.47;100.00
3590;BME280;1809;48.470;9.226;2023-04-21T09:06:58;-1541.09;;;10.68;100.00
3590;BME280;1809;48.470;9.226;2023-04-21T09:09:23;-4866.59;;;10.91;100.00
3590;BME280;1809;48.470;9.226;2023-04-21T09:11:55;-13280.56;;;11.16;100.00
3590;BME280;1809;48.470;9.226;2023-04-21T09:14:33;-16480.81;;;11.19;100.00
3590;BME280;1809;48.470;9.226;2023-04-21T09:17:01;-16480.13;;;11.16;100.00
3590;BME280;1809;48.470;9.226;2023-04-21T09:19:28;-16483.63;;;11.29;100.00
3590;BME280;1809;48.470;9.226;2023-04-21T09:21:53;-16489.81;;;11.51;100.00
3590;BME280;1809;48.470;9.226;2023-04-21T09:24:19;-16497.94;;;11.80;100.00
3590;BME280;1809;48.470;9.226;2023-04-21T09:26:49;-16495.41;;;11.71;100.00
3590;BME280;1809;48.470;9.226;2023-04-21T09:29:14;-16503.28;;;12.00;100.00
3590;BME280;1809;48.470;9.226;2023-04-21T09:31:43;-16502.84;;;11.98;100.00
3590;BME280;1809;48.470;9.226;2023-04-21T09:34:22;-16511.13;;;12.28;100.00
3590;BME280;1809;48.470;9.226;2023-04-21T09:37:02;-16513.09;;;12.35;100.00
3590;BME280;1809;48.470;9.226;2023-04-21T09:39:28;-16509.16;;;12.21;100.00
3590;BME280;1809;48.470;9.226;2023-04-21T09:41:54;-16509.59;;;12.22;100.00
3590;BME280;1809;48.470;9.226;2023-04-21T09:44:21;-16514.22;;;12.39;100.00
3590;BME280;1809;48.470;9.226;2023-04-21T09:46:50;-16520.81;;;12.63;100.00
3590;BME280;1809;48.470;9.226;2023-04-21T09:49:17;-16523.22;;;12.71;100.00
3590;BME280;1809;48.470;9.226;2023-04-21T09:51:45;-16535.84;;;13.17;100.00
3590;BME280;1809;48.470;9.226;2023-04-21T09:54:15;-16541.31;;;13.36;100.00
3590;BME280;1809;48.470;9.226;2023-04-21T09:56:42;-16541.44;;;13.37;100.00
3590;BME280;1809;48.470;9.226;2023-04-21T09:59:16;-16550.16;;;13.68;100.00
3590;BME280;1809;48.470;9.226;2023-04-21T10:01:44;-16552.66;;;13.77;100.00
3590;BME280;1809;48.470;9.226;2023-04-21T10:04:13;-16552.53;;;13.77;100.00
3590;BME280;1809;48.470;9.226;2023-04-21T10:06:39;-16562.06;;;14.11;100.00
3590;BME280;1809;48.470;9.226;2023-04-21T10:09:05;-16557.72;;;13.95;100.00
3590;BME280;1809;48.470;9.226;2023-04-21T10:11:34;-16555.47;;;13.87;100.00
3590;BME280;1809;48.470;9.226;2023-04-21T10:14:01;-16554.78;;;13.85;100.00
3590;BME280;1809;48.470;9.226;2023-04-21T10:16:26;-16558.00;;;13.96;100.00
3590;BME280;1809;48.470;9.226;2023-04-21T10:18:51;-16560.81;;;14.07;100.00
3590;BME280;1809;48.470;9.226;2023-04-21T10:21:19;-16569.38;;;14.37;100.00
3590;BME280;1809;48.470;9.226;2023-04-21T10:23:50;-16578.47;;;14.70;100.00
3590;BME280;1809;48.470;9.226;2023-04-21T10:26:33;-16586.03;;;14.97;100.00
3590;BME280;1809;48.470;9.226;2023-04-21T10:29:00;-16589.69;;;15.11;100.00
3590;BME280;1809;48.470;9.226;2023-04-21T10:39:07;-16582.81;;;14.86;100.00
3590;BME280;1809;48.470;9.226;2023-04-21T10:41:33;-16581.97;;;14.83;100.00
3590;BME280;1809;48.470;9.226;2023-04-21T10:44:06;-16590.94;;;15.15;100.00
3590;BME280;1809;48.470;9.226;2023-04-21T10:46:39;-16591.50;;;15.17;100.00
3590;BME280;1809;48.470;9.226;2023-04-21T10:49:07;-16596.97;;;15.37;100.00
3590;BME280;1809;48.470;9.226;2023-04-21T10:54:25;-16600.91;;;15.51;100.00
3590;BME280;1809;48.470;9.226;2023-04-21T10:56:53;-16605.81;;;15.69;100.00
3590;BME280;1809;48.470;9.226;2023-04-21T10:59:18;-16609.44;;;15.82;100.00
3590;BME280;1809;48.470;9.226;2023-04-21T11:01:44;-16615.19;;;16.02;100.00
3590;BME280;1809;48.470;9.226;2023-04-21T11:04:28;-16619.97;;;16.20;100.00
3590;BME280;1809;48.470;9.226;2023-04-21T11:09:32;-16619.41;;;16.18;100.00
3590;BME280;1809;48.470;9.226;2023-04-21T11:11:59;-16614.78;;;16.01;100.00
3590;BME280;1809;48.470;9.226;2023-04-21T11:14:26;-16624.44;;;16.36;100.00
3590;BME280;1809;48.470;9.226;2023-04-21T11:16:52;-16621.06;;;16.24;100.00
3590;BME280;1809;48.470;9.226;2023-04-21T11:19:17;-16618.84;;;16.16;100.00
3590;BME280;1809;48.470;9.226;2023-04-21T11:21:47;-16619.41;;;16.18;100.00
3590;BME280;1809;48.470;9.226;2023-04-21T11:24:12;-16620.25;;;16.21;100.00
3590;BME280;1809;48.470;9.226;2023-04-21T11:26:38;-16626.97;;;16.45;100.00
3590;BME280;1809;48.470;9.226;2023-04-21T11:29:05;-16628.63;;;16.51;100.00
3590;BME280;1809;48.470;9.226;2023-04-21T11:31:31;-16624.72;;;16.37;100.00
3590;BME280;1809;48.470;9.226;2023-04-21T11:34:00;-16628.38;;;16.50;100.00
3590;BME280;1809;48.470;9.226;2023-04-21T11:36:25;-16613.66;;;15.97;100.00
3590;BME280;1809;48.470;9.226;2023-04-21T11:38:51;-16615.75;;;16.04;100.00
3590;BME280;1809;48.470;9.226;2023-04-21T11:41:23;-16626.97;;;16.45;100.00
3590;BME280;1809;48.470;9.226;2023-04-21T11:43:49;-16624.16;;;16.35;100.00
3590;BME280;1809;48.470;9.226;2023-04-21T11:46:17;-16628.63;;;16.51;100.00
3590;BME280;1809;48.470;9.226;2023-04-21T11:48:43;-16636.50;;;16.79;100.00
3590;BME280;1809;48.470;9.226;2023-04-21T11:51:16;-16638.16;;;16.85;100.00
3590;BME280;1809;48.470;9.226;2023-04-21T11:53:45;-16644.47;;;17.08;100.00
3590;BME280;1809;48.470;9.226;2023-04-21T11:56:10;-16641.25;;;16.96;100.00
3590;BME280;1809;48.470;9.226;2023-04-21T11:58:37;-16647.41;;;17.18;100.00
3590;BME280;1809;48.470;9.226;2023-04-21T12:01:07;-16648.25;;;17.22;100.00
3590;BME280;1809;48.470;9.226;2023-04-21T12:03:33;-16647.41;;;17.18;100.00
3590;BME280;1809;48.470;9.226;2023-04-21T12:05:58;-16644.63;;;17.08;100.00
3590;BME280;1809;48.470;9.226;2023-04-21T12:08:28;-16648.25;;;17.22;100.00
3590;BME280;1809;48.470;9.226;2023-04-21T12:10:53;-16647.69;;;17.19;100.00
3590;BME280;1809;48.470;9.226;2023-04-21T12:13:22;-16651.06;;;17.32;100.00
3590;BME280;1809;48.470;9.226;2023-04-21T12:15:48;-16657.63;;;17.55;100.00
3590;BME280;1809;48.470;9.226;2023-04-21T12:18:13;-16662.25;;;17.72;100.00
3590;BME280;1809;48.470;9.226;2023-04-21T12:20:48;-16662.41;;;17.72;100.00
3590;BME280;1809;48.470;9.226;2023-04-21T12:23:13;-16666.31;;;17.87;100.00
3590;BME280;1809;48.470;9.226;2023-04-21T12:25:38;-16668.41;;;17.94;100.00
3590;BME280;1809;48.470;9.226;2023-04-21T12:28:07;-16666.88;;;17.89;100.00
3590;BME280;1809;48.470;9.226;2023-04-21T12:30:32;-16662.53;;;17.73;100.00
3590;BME280;1809;48.470;9.226;2023-04-21T12:32:57;-16666.72;;;17.88;100.00
3590;BME280;1809;48.470;9.226;2023-04-21T12:35:25;-16668.84;;;17.96;100.00
3590;BME280;1809;48.470;9.226;2023-04-21T12:37:50;-16673.72;;;18.13;100.00
3590;BME280;1809;48.470;9.226;2023-04-21T12:40:16;-16672.59;;;18.09;100.00
3590;BME280;1809;48.470;9.226;2023-04-21T12:42:41;-16677.94;;;18.28;100.00
3590;BME280;1809;48.470;9.226;2023-04-21T12:45:07;-16681.56;;;18.42;100.00
3590;BME280;1809;48.470;9.226;2023-04-21T12:47:33;-16680.16;;;18.37;100.00
3590;BME280;1809;48.470;9.226;2023-04-21T12:49:58;-16683.25;;;18.48;100.00
3590;BME280;1809;48.470;9.226;2023-04-21T12:52:24;-16688.84;;;18.68;100.00
3590;BME280;1809;48.470;9.226;2023-04-21T12:54:50;-16694.16;;;18.87;100.00
3590;BME280;1809;48.470;9.226;2023-04-21T12:57:16;-16698.34;;;19.02;100.00
3590;BME280;1809;48.470;9.226;2023-04-21T12:59:41;-16699.47;;;19.06;100.00
3590;BME280;1809;48.470;9.226;2023-04-21T13:02:07;-16705.91;;;19.29;100.00
3590;BME280;1809;48.470;9.226;2023-04-21T13:04:32;-16704.50;;;19.24;100.00
3590;BME280;1809;48.470;9.226;2023-04-21T13:06:58;-16705.06;;;19.26;100.00
3590;BME280;1809;48.470;9.226;2023-04-21T13:09:23;-16702.97;;;19.19;100.00
3590;BME280;1809;48.470;9.226;2023-04-21T13:11:48;-16706.19;;;19.30;100.00
3590;BME280;1809;48.470;9.226;2023-04-21T13:14:16;-16708.72;;;19.40;100.00
3590;BME280;1809;48.470;9.226;2023-04-21T13:16:42;-16707.72;;;19.36;100.00
3590;BME280;1809;48.470;9.226;2023-04-21T13:19:07;-16718.91;;;19.76;100.00